createdAt,value
2018-07-24T00:02:02.100Z,101135.77
2018-07-24T00:10:04.165Z,101128.16
2018-07-24T00:12:34.514Z,101129.45
2018-07-24T00:15:07.686Z,101126.27
2018-07-24T00:17:39.050Z,101121.30
2018-07-24T00:20:09.484Z,101115.84
2018-07-24T00:22:39.786Z,101123.34
2018-07-24T00:25:10.524Z,101121.39
2018-07-24T00:27:40.878Z,101121.81
2018-07-24T00:30:14.294Z,101119.30
2018-07-24T00:32:45.104Z,101123.73
2018-07-24T00:35:16.174Z,101119.12
2018-07-24T00:37:46.670Z,101112.08
2018-07-24T00:40:17.282Z,101111.23
2018-07-24T00:42:47.761Z,101115.91
2018-07-24T00:45:29.809Z,101108.58
2018-07-24T00:48:03.518Z,101110.19
2018-07-24T00:50:35.291Z,101114.31
2018-07-24T00:53:05.593Z,101108.70
2018-07-24T00:55:36.301Z,101107.47
2018-07-24T00:58:07.396Z,101106.45
2018-07-24T01:00:38.021Z,101102.80
2018-07-24T01:03:08.436Z,101102.55
2018-07-24T01:05:39.153Z,101107.52
2018-07-24T01:08:10.016Z,101096.60
2018-07-24T01:10:42.164Z,101096.80
2018-07-24T01:13:14.189Z,101092.66
2018-07-24T01:15:44.892Z,101093.55
2018-07-24T01:18:15.064Z,101096.22
2018-07-24T01:20:45.395Z,101094.41
2018-07-24T01:23:16.745Z,101092.23
2018-07-24T01:25:47.442Z,101099.05
2018-07-24T01:28:18.789Z,101093.91
2018-07-24T01:30:49.411Z,101051.76
2018-07-24T01:33:20.455Z,101093.70
2018-07-24T01:35:54.856Z,101090.45
2018-07-24T01:38:25.977Z,101091.12
2018-07-24T01:40:56.320Z,101086.77
2018-07-24T01:43:27.178Z,101083.23
2018-07-24T01:45:59.120Z,101090.45
2018-07-24T01:48:29.681Z,101088.33
2018-07-24T01:51:00.139Z,101097.79
2018-07-24T01:53:30.584Z,101087.00
2018-07-24T01:56:00.873Z,101087.56
2018-07-24T01:58:32.070Z,101092.11
2018-07-24T02:01:04.171Z,101087.00
2018-07-24T02:03:35.226Z,101080.05
2018-07-24T02:06:06.004Z,101081.27
2018-07-24T02:08:36.686Z,101084.30
2018-07-24T02:11:07.791Z,101083.61
2018-07-24T02:13:38.897Z,101030.34
2018-07-24T02:16:09.556Z,101076.44
2018-07-24T02:18:40.198Z,101029.91
2018-07-24T02:21:10.964Z,101072.88
2018-07-24T02:23:43.280Z,101077.48
2018-07-24T02:26:14.193Z,101080.53
2018-07-24T02:28:44.983Z,101080.45
2018-07-24T02:31:16.019Z,101080.45
2018-07-24T02:33:47.420Z,101078.31
2018-07-24T02:36:18.740Z,101082.84
2018-07-24T02:38:49.320Z,101082.30
2018-07-24T02:41:19.778Z,101080.41
2018-07-24T02:43:50.145Z,101076.01
2018-07-24T02:46:20.920Z,101006.17
2018-07-24T02:48:51.494Z,101079.46
2018-07-24T02:51:21.635Z,101082.81
2018-07-24T02:53:52.813Z,101084.30
2018-07-24T02:56:23.270Z,101082.73
2018-07-24T02:58:53.902Z,101082.63
2018-07-24T03:01:25.070Z,101084.63
2018-07-24T03:03:56.436Z,101084.84
2018-07-24T03:06:26.837Z,101086.31
2018-07-24T03:08:57.111Z,101083.47
2018-07-24T03:11:27.681Z,101081.59
2018-07-24T03:13:58.326Z,101078.27
2018-07-24T03:16:30.728Z,101077.63
2018-07-24T03:19:00.944Z,101077.92
2018-07-24T03:21:31.533Z,101086.40
2018-07-24T03:24:02.644Z,101078.45
2018-07-24T03:26:33.204Z,101017.97
2018-07-24T03:29:03.755Z,101075.96
2018-07-24T03:31:34.371Z,101079.61
2018-07-24T03:34:04.826Z,101070.83
2018-07-24T03:36:35.654Z,101076.78
2018-07-24T03:39:15.099Z,101081.69
2018-07-24T03:41:45.842Z,101082.00
2018-07-24T03:44:16.232Z,101084.81
2018-07-24T03:46:47.415Z,101077.81
2018-07-24T03:49:18.725Z,101084.20
2018-07-24T03:51:49.144Z,101086.09
2018-07-24T03:54:19.505Z,101083.66
2018-07-24T03:56:52.432Z,101082.09
2018-07-24T03:59:23.430Z,101085.33
2018-07-24T04:01:54.028Z,101085.02
2018-07-24T04:04:25.780Z,101089.49
2018-07-24T04:06:56.520Z,101088.05
2018-07-24T04:09:27.762Z,101085.42
2018-07-24T04:11:59.959Z,101092.96
2018-07-24T04:14:32.206Z,101085.32
2018-07-24T04:17:02.482Z,101088.16
2018-07-24T04:19:33.069Z,101088.24
2018-07-24T04:22:03.472Z,101087.41
2018-07-24T04:24:33.988Z,101087.21
2018-07-24T04:27:05.659Z,101083.13
2018-07-24T04:29:36.796Z,101078.86
2018-07-24T04:32:07.311Z,101085.33
2018-07-24T04:34:37.543Z,101084.68
2018-07-24T04:37:07.868Z,101075.03
2018-07-24T04:39:39.423Z,101079.41
2018-07-24T04:42:10.906Z,101075.38
2018-07-24T04:44:41.280Z,101074.18
2018-07-24T04:47:12.486Z,101074.13
2018-07-24T04:49:54.849Z,101078.02
2018-07-24T04:52:25.569Z,101074.83
2018-07-24T04:54:55.768Z,101073.19
2018-07-24T04:57:26.725Z,101071.75
2018-07-24T04:59:57.312Z,101074.37
2018-07-24T05:02:28.115Z,101078.45
2018-07-24T05:04:58.884Z,101074.77
2018-07-24T05:07:33.645Z,101078.15
2018-07-24T05:10:04.004Z,101077.95
2018-07-24T05:12:34.365Z,101081.95
2018-07-24T05:15:09.297Z,101077.22
2018-07-24T05:17:49.587Z,101081.68
2018-07-24T05:20:20.213Z,101079.47
2018-07-24T05:22:51.550Z,101076.06
2018-07-24T05:25:22.212Z,101081.98
2018-07-24T05:27:52.491Z,101085.19
2018-07-24T05:30:23.685Z,101083.79
2018-07-24T05:35:19.380Z,101081.13
2018-07-24T05:37:49.888Z,101082.53
2018-07-24T05:40:20.954Z,101084.86
2018-07-24T05:42:59.955Z,101083.67
2018-07-24T05:45:31.210Z,101090.09
2018-07-24T05:48:02.589Z,101090.94
2018-07-24T05:50:33.603Z,101087.86
2018-07-24T05:53:04.065Z,101090.17
2018-07-24T05:55:36.102Z,101090.59
2018-07-24T05:58:07.190Z,101089.30
2018-07-24T06:00:37.872Z,101082.45
2018-07-24T06:03:09.306Z,101088.83
2018-07-24T06:05:40.209Z,101077.42
2018-07-24T06:08:10.628Z,101088.09
2018-07-24T06:10:41.054Z,101089.28
2018-07-24T06:13:12.539Z,101085.27
2018-07-24T06:15:43.221Z,101085.81
2018-07-24T06:18:15.506Z,101089.16
2018-07-24T06:20:51.664Z,101090.59
2018-07-24T06:23:23.528Z,101090.64
2018-07-24T06:25:58.662Z,101086.86
2018-07-24T06:28:28.891Z,101096.53
2018-07-24T06:31:02.100Z,101086.00
2018-07-24T06:33:33.207Z,101087.81
2018-07-24T06:36:04.228Z,101092.78
2018-07-24T06:38:35.100Z,101089.21
2018-07-24T06:41:05.383Z,101088.28
2018-07-24T06:43:35.700Z,101087.31
2018-07-24T06:46:07.721Z,101096.83
2018-07-24T06:48:38.454Z,101093.52
2018-07-24T06:51:09.162Z,101092.48
2018-07-24T06:53:39.976Z,101090.05
2018-07-24T06:56:11.251Z,101094.83
2018-07-24T06:58:46.284Z,101103.21
2018-07-24T07:01:20.860Z,101089.90
2018-07-24T07:03:52.966Z,101090.14
2018-07-24T07:06:24.144Z,101087.00
2018-07-24T07:08:59.917Z,101088.42
2018-07-24T07:11:32.620Z,101082.70
2018-07-24T07:14:03.259Z,101085.12
2018-07-24T07:16:42.836Z,101084.41
2018-07-24T07:19:14.625Z,101080.19
2018-07-24T07:21:45.714Z,101079.44
2018-07-24T07:24:21.538Z,101081.83
2018-07-24T07:26:54.316Z,101082.25
2018-07-24T07:29:26.119Z,101086.01
2018-07-24T07:31:59.609Z,101069.27
2018-07-24T07:34:33.379Z,101078.55
2018-07-24T07:37:03.961Z,101078.54
2018-07-24T07:39:35.391Z,101080.41
2018-07-24T07:42:09.509Z,101077.33
2018-07-24T07:44:39.685Z,101075.67
2018-07-24T07:47:11.262Z,101081.65
2018-07-24T07:49:41.526Z,101081.88
2018-07-24T07:52:12.007Z,101074.86
2018-07-24T07:54:45.426Z,101082.90
2018-07-24T07:57:17.894Z,101072.91
2018-07-24T07:59:50.571Z,101070.83
2018-07-24T08:02:22.247Z,101077.80
2018-07-24T08:04:56.251Z,101084.70
2018-07-24T08:07:27.866Z,101076.69
2018-07-24T08:12:48.069Z,101061.94
2018-07-24T08:15:28.189Z,101066.16
2018-07-24T08:17:58.779Z,101072.88
2018-07-24T08:20:31.267Z,101066.14
2018-07-24T08:23:01.587Z,101072.36
2018-07-24T08:25:35.336Z,101067.83
2018-07-24T08:28:16.036Z,101063.59
2018-07-24T08:30:47.447Z,101068.98
2018-07-24T08:33:19.733Z,101069.20
2018-07-24T08:35:57.357Z,101066.16
2018-07-24T08:38:31.413Z,101064.02
2018-07-24T08:41:05.653Z,101061.86
2018-07-24T08:43:39.482Z,101064.20
2018-07-24T08:46:12.373Z,101059.01
2018-07-24T08:48:45.413Z,101053.30
2018-07-24T08:51:16.334Z,101059.75
2018-07-24T08:53:51.306Z,101057.48
2018-07-24T08:56:22.259Z,101053.70
2018-07-24T08:58:56.821Z,101052.97
2018-07-24T09:01:30.165Z,101052.19
2018-07-24T09:04:04.994Z,101050.02
2018-07-24T09:06:37.731Z,101048.56
2018-07-24T09:09:10.956Z,101045.89
2018-07-24T09:11:47.430Z,101045.78
2018-07-24T09:14:19.509Z,101049.66
2018-07-24T09:16:49.976Z,101045.02
2018-07-24T09:19:22.824Z,101048.39
2018-07-24T09:21:53.685Z,101043.06
2018-07-24T09:24:25.523Z,101047.55
2018-07-24T09:26:57.791Z,101047.88
2018-07-24T09:29:29.193Z,101051.38
2018-07-24T09:32:07.011Z,101048.52
2018-07-24T09:34:37.384Z,101051.63
2018-07-24T09:37:07.644Z,101043.67
2018-07-24T09:39:37.905Z,101047.00
2018-07-24T09:42:09.976Z,101043.26
2018-07-24T09:44:40.614Z,101043.22
2018-07-24T09:47:11.304Z,101037.92
2018-07-24T09:49:43.244Z,101040.55
2018-07-24T09:52:14.514Z,101039.90
2018-07-24T09:54:44.895Z,101037.53
2018-07-24T09:57:16.109Z,101031.83
2018-07-24T09:59:49.952Z,101032.66
2018-07-24T10:02:22.302Z,101027.41
2018-07-24T10:04:52.981Z,101023.72
2018-07-24T10:07:28.820Z,101022.25
2018-07-24T10:10:00.730Z,101022.06
2018-07-24T10:12:32.297Z,101017.06
2018-07-24T10:15:04.956Z,101017.92
2018-07-24T10:17:52.706Z,101013.09
2018-07-24T10:23:11.152Z,101010.56
2018-07-24T10:25:43.818Z,101010.48
2018-07-24T10:28:18.004Z,100998.45
2018-07-24T10:30:53.115Z,100995.92
2018-07-24T10:33:24.914Z,100988.53
2018-07-24T10:36:01.103Z,100990.67
2018-07-24T10:41:06.447Z,100980.14
2018-07-24T10:43:38.138Z,100975.63
2018-07-24T10:46:12.596Z,100981.70
2018-07-24T10:48:48.045Z,100981.10
2018-07-24T10:51:18.606Z,100979.73
2018-07-24T10:53:51.131Z,100976.50
2018-07-24T10:56:22.720Z,100981.13
2018-07-24T10:58:59.134Z,100970.76
2018-07-24T11:01:31.081Z,100968.52
2018-07-24T11:04:09.283Z,100964.73
2018-07-24T11:06:58.110Z,100962.28
2018-07-24T11:09:33.672Z,100961.94
2018-07-24T11:12:10.133Z,100965.19
2018-07-24T11:14:42.134Z,100961.44
2018-07-24T11:17:20.788Z,100962.06
2018-07-24T11:19:53.230Z,100955.42
2018-07-24T11:22:48.523Z,100920.84
2018-07-24T11:25:25.788Z,100957.28
2018-07-24T11:28:00.469Z,100953.75
2018-07-24T11:30:32.337Z,100951.97
2018-07-24T11:33:04.590Z,100943.34
2018-07-24T11:35:41.514Z,100945.12
2018-07-24T11:38:13.166Z,100939.99
2018-07-24T11:40:44.183Z,100944.16
2018-07-24T11:43:15.584Z,100939.70
2018-07-24T11:46:05.096Z,100933.36
2018-07-24T11:48:37.984Z,100933.95
2018-07-24T11:51:11.335Z,100935.03
2018-07-24T11:53:45.078Z,100929.44
2018-07-24T11:56:16.601Z,100935.41
2018-07-24T11:58:47.055Z,100930.95
2018-07-24T12:01:19.864Z,100934.23
2018-07-24T12:04:00.944Z,100923.03
2018-07-24T12:06:33.555Z,100923.80
2018-07-24T12:09:08.306Z,100921.48
2018-07-24T12:11:44.827Z,100924.55
2018-07-24T12:14:24.239Z,100915.37
2018-07-24T12:16:57.691Z,100909.72
2018-07-24T12:19:30.394Z,100904.41
2018-07-24T12:22:03.259Z,100909.61
2018-07-24T12:24:34.211Z,100819.27
2018-07-24T12:27:05.924Z,100913.15
2018-07-24T12:29:37.340Z,100910.84
2018-07-24T12:32:10.388Z,100911.58
2018-07-24T12:34:42.240Z,100912.12
2018-07-24T12:37:14.243Z,100906.53
2018-07-24T12:39:50.341Z,100904.73
2018-07-24T12:42:21.667Z,100900.39
2018-07-24T12:44:57.263Z,100904.87
2018-07-24T12:47:33.656Z,100893.07
2018-07-24T12:50:05.588Z,100895.70
2018-07-24T12:52:39.887Z,100893.06
2018-07-24T12:55:13.742Z,100889.95
2018-07-24T12:57:47.589Z,100891.92
2018-07-24T13:00:28.932Z,100885.42
2018-07-24T13:03:02.696Z,100881.31
2018-07-24T13:05:56.152Z,100878.77
2018-07-24T13:08:31.650Z,100883.91
2018-07-24T13:11:07.870Z,100877.34
2018-07-24T13:13:46.921Z,100873.03
2018-07-24T13:19:05.043Z,100877.58
2018-07-24T13:21:38.115Z,100870.89
2018-07-24T13:24:15.527Z,100866.59
2018-07-24T13:26:48.469Z,100865.59
2018-07-24T13:29:23.336Z,100864.04
2018-07-24T13:32:07.944Z,100864.50
2018-07-24T13:34:46.294Z,100870.31
2018-07-24T13:37:30.396Z,100865.39
2018-07-24T13:40:08.599Z,100863.80
2018-07-24T13:42:43.638Z,100859.70
2018-07-24T13:45:17.804Z,100856.44
2018-07-24T13:47:49.635Z,100789.39
2018-07-24T13:50:23.394Z,100848.16
2018-07-24T13:52:54.731Z,100852.94
2018-07-24T13:55:32.615Z,100853.02
2018-07-24T13:58:20.087Z,100846.04
2018-07-24T14:00:55.580Z,100795.30
2018-07-24T14:03:30.858Z,100849.12
2018-07-24T14:06:03.765Z,100844.22
2018-07-24T14:08:37.045Z,100842.89
2018-07-24T14:11:07.825Z,100841.63
2018-07-24T14:13:40.622Z,100835.07
2018-07-24T14:16:12.182Z,100835.45
2018-07-24T14:18:43.670Z,100835.45
2018-07-24T14:21:29.731Z,100828.61
2018-07-24T14:24:03.138Z,100829.03
2018-07-24T14:26:34.853Z,100829.61
2018-07-24T14:29:08.089Z,100829.02
2018-07-24T14:31:39.647Z,100826.98
2018-07-24T14:37:00.930Z,100818.09
2018-07-24T14:39:32.064Z,100817.69
2018-07-24T14:42:07.211Z,100818.30
2018-07-24T14:44:40.803Z,100811.40
2018-07-24T14:47:13.785Z,100762.55
2018-07-24T14:49:45.185Z,100814.02
2018-07-24T14:52:18.238Z,100806.25
2018-07-24T14:58:03.624Z,100807.13
2018-07-24T15:00:35.322Z,100807.69
2018-07-24T15:03:24.577Z,100803.58
2018-07-24T15:06:02.653Z,100800.28
2018-07-24T15:08:51.117Z,100801.03
2018-07-24T15:11:26.438Z,100797.58
2018-07-24T15:13:59.278Z,100796.72
2018-07-24T15:16:40.584Z,100801.00
2018-07-24T15:19:14.084Z,100800.80
2018-07-24T15:21:46.868Z,100796.91
2018-07-24T15:24:19.222Z,100789.81
2018-07-24T15:26:55.263Z,100787.08
2018-07-24T15:29:31.315Z,100783.59
2018-07-24T15:32:09.501Z,100782.80
2018-07-24T15:34:43.008Z,100776.19
2018-07-24T15:37:26.982Z,100781.69
2018-07-24T15:40:15.878Z,100775.19
2018-07-24T15:42:54.816Z,100776.89
2018-07-24T15:45:43.622Z,100773.28
2018-07-24T15:48:16.405Z,100774.61
2018-07-24T15:50:47.330Z,100764.59
2018-07-24T15:53:18.038Z,100768.06
2018-07-24T15:55:53.611Z,100763.09
2018-07-24T15:58:27.307Z,100758.92
2018-07-24T16:04:16.905Z,100754.99
2018-07-24T16:06:52.123Z,100761.23
2018-07-24T16:09:25.332Z,100767.66
2018-07-24T16:11:57.394Z,100757.55
2018-07-24T16:14:38.637Z,100756.81
2018-07-24T16:17:11.558Z,100758.22
2018-07-24T16:19:46.072Z,100764.49
2018-07-24T16:22:18.685Z,100763.61
2018-07-24T16:24:55.388Z,100757.27
2018-07-24T16:27:25.737Z,100753.47
2018-07-24T16:29:56.724Z,100750.33
2018-07-24T16:32:29.467Z,100748.33
2018-07-24T16:35:00.884Z,100748.49
2018-07-24T16:37:41.363Z,100748.54
2018-07-24T16:40:14.647Z,100751.02
2018-07-24T16:43:00.256Z,100750.25
2018-07-24T16:45:36.310Z,100750.15
2018-07-24T16:48:13.695Z,100745.02
2018-07-24T16:51:01.291Z,100748.50
2018-07-24T16:53:36.546Z,100746.72
2018-07-24T16:56:12.203Z,100744.07
2018-07-24T16:58:48.193Z,100747.70
2018-07-24T17:13:21.489Z,100736.59
2018-07-24T17:15:58.179Z,100732.17
2018-07-24T17:21:17.865Z,100730.12
2018-07-24T17:23:50.630Z,100729.43
2018-07-24T17:26:24.241Z,100727.34
2018-07-24T17:28:55.201Z,100727.34
2018-07-24T17:31:32.195Z,100736.56
2018-07-24T17:34:11.665Z,100732.20
2018-07-24T17:36:43.306Z,100726.13
2018-07-24T17:39:22.598Z,100728.08
2018-07-24T17:42:00.913Z,100737.75
2018-07-24T17:44:36.595Z,100734.81
2018-07-24T17:47:07.260Z,100738.28
2018-07-24T17:49:39.328Z,100738.02
2018-07-24T17:52:14.492Z,100734.21
2018-07-24T17:54:50.196Z,100740.98
2018-07-24T17:57:26.220Z,100737.22
2018-07-24T18:00:06.937Z,100736.50
2018-07-24T18:02:37.204Z,100740.16
2018-07-24T18:05:13.454Z,100740.36
2018-07-24T18:07:48.886Z,100738.64
2018-07-24T18:10:36.265Z,100737.16
2018-07-24T18:13:09.596Z,100742.17
2018-07-24T18:15:42.831Z,100747.59
2018-07-24T18:18:19.636Z,100746.34
2018-07-24T18:20:58.593Z,100750.95
2018-07-24T18:23:31.892Z,100754.03
2018-07-24T18:31:36.318Z,100747.54
2018-07-24T18:34:07.957Z,100748.19
2018-07-24T18:36:39.483Z,100752.55
2018-07-24T18:39:11.105Z,100747.98
2018-07-24T18:41:41.582Z,100755.66
2018-07-24T18:44:12.970Z,100751.23
2018-07-24T18:46:47.505Z,100749.88
2018-07-24T18:49:19.012Z,100750.44
2018-07-24T18:51:50.084Z,100752.44
2018-07-24T18:54:20.879Z,100755.21
2018-07-24T18:56:53.487Z,100756.97
2018-07-24T18:59:27.600Z,100760.30
2018-07-24T19:04:41.600Z,100763.52
2018-07-24T19:07:17.890Z,100757.50
2018-07-24T19:09:48.624Z,100756.67
2018-07-24T19:12:26.437Z,100762.64
2018-07-24T19:15:21.876Z,100770.09
2018-07-24T19:18:04.911Z,100764.41
2018-07-24T19:20:42.910Z,100767.55
2018-07-24T19:23:17.280Z,100771.08
2018-07-24T19:25:50.433Z,100771.08
2018-07-24T19:28:24.510Z,100772.64
2018-07-24T19:36:28.545Z,100780.53
2018-07-24T19:39:00.687Z,100786.06
2018-07-24T19:41:42.744Z,100780.06
2018-07-24T19:44:14.951Z,100787.86
2018-07-24T19:46:52.961Z,100787.92
2018-07-24T19:49:28.050Z,100791.80
2018-07-24T19:52:00.519Z,100790.18
2018-07-24T19:54:33.924Z,100795.16
2018-07-24T19:57:11.308Z,100802.06
2018-07-24T19:59:48.931Z,100799.91
2018-07-24T20:02:22.060Z,100803.50
2018-07-24T20:04:56.642Z,100811.84
2018-07-24T20:07:29.513Z,100803.09
2018-07-24T20:10:05.804Z,100808.37
2018-07-24T20:12:38.256Z,100811.45
2018-07-24T20:15:23.506Z,100809.56
2018-07-24T20:17:59.609Z,100814.08
2018-07-24T20:20:38.988Z,100807.02
2018-07-24T20:23:11.523Z,100812.62
2018-07-24T20:25:45.398Z,100813.17
2018-07-24T20:28:16.582Z,100816.31
2018-07-24T20:30:48.360Z,100815.02
2018-07-24T20:36:34.024Z,100821.52
2018-07-24T20:39:12.866Z,100819.06
2018-07-24T20:41:52.699Z,100822.94
2018-07-24T20:44:34.432Z,100817.17
2018-07-24T20:50:01.562Z,100819.65
2018-07-24T20:52:39.684Z,100821.05
2018-07-24T20:55:13.544Z,100817.99
2018-07-24T20:57:43.975Z,100821.03
2018-07-24T21:00:19.411Z,100814.94
2018-07-24T21:02:54.764Z,100820.22
2018-07-24T21:05:29.474Z,100821.89
2018-07-24T21:08:07.077Z,100817.46
2018-07-24T21:10:41.894Z,100813.91
2018-07-24T21:13:19.477Z,100819.13
2018-07-24T21:15:54.655Z,100815.52
2018-07-24T21:18:28.549Z,100813.89
2018-07-24T21:21:03.398Z,100815.80
2018-07-24T21:23:43.690Z,100816.34
2018-07-24T21:26:16.127Z,100818.01
2018-07-24T21:28:54.455Z,100822.73
2018-07-24T21:31:30.402Z,100823.25
2018-07-24T21:34:10.203Z,100831.20
2018-07-24T21:36:44.907Z,100831.40
2018-07-24T21:39:20.298Z,100832.73
2018-07-24T21:45:10.385Z,100834.93
2018-07-24T21:48:17.165Z,100836.05
2018-07-24T21:50:54.605Z,100844.55
2018-07-24T21:53:27.477Z,100846.13
2018-07-24T21:56:00.368Z,100847.24
2018-07-24T21:58:32.208Z,100847.79
2018-07-24T22:01:09.348Z,100847.94
2018-07-24T22:03:41.573Z,100852.53
2018-07-24T22:06:14.901Z,100854.94
2018-07-24T22:08:48.147Z,100848.70
2018-07-24T22:11:18.453Z,100849.28
2018-07-24T22:13:49.438Z,100851.66
2018-07-24T22:16:22.985Z,100842.98
2018-07-24T22:18:56.829Z,100856.12
2018-07-24T22:21:27.596Z,100854.91
2018-07-24T22:24:00.242Z,100859.11
2018-07-24T22:26:32.861Z,100860.66
2018-07-24T22:29:03.194Z,100858.02
2018-07-24T22:31:34.696Z,100861.77
2018-07-24T22:34:07.496Z,100854.56
2018-07-24T22:36:38.317Z,100859.84
2018-07-24T22:42:15.992Z,100859.41
2018-07-24T22:44:48.032Z,100855.47
2018-07-24T22:47:29.953Z,100856.08
2018-07-24T22:50:04.519Z,100854.23
2018-07-24T22:52:39.602Z,100856.67
2018-07-24T22:55:12.321Z,100856.91
2018-07-24T22:57:44.430Z,100858.21
2018-07-24T23:00:21.246Z,100872.86
2018-07-24T23:02:52.635Z,100866.92
2018-07-24T23:05:25.391Z,100869.37
2018-07-24T23:07:59.034Z,100874.02
2018-07-24T23:10:35.129Z,100872.84
2018-07-24T23:13:08.756Z,100870.70
2018-07-24T23:18:03.671Z,100868.53
2018-07-24T23:20:36.255Z,100866.17
2018-07-24T23:23:11.073Z,100860.05
2018-07-24T23:25:41.864Z,100865.26
2018-07-24T23:28:12.157Z,100860.89
2018-07-24T23:30:45.066Z,100860.35
2018-07-24T23:33:15.916Z,100864.03
2018-07-24T23:35:46.324Z,100866.55
2018-07-24T23:38:16.557Z,100866.33
2018-07-24T23:40:46.781Z,100864.96
2018-07-24T23:43:17.056Z,100865.77
2018-07-24T23:45:48.534Z,100859.09
2018-07-24T23:48:19.009Z,100859.38
2018-07-24T23:50:49.321Z,100861.82
2018-07-24T23:53:20.390Z,100862.14
2018-07-24T23:55:50.816Z,100860.97
2018-07-24T23:58:30.149Z,100859.61
